Time;durP1;ratioP1;P1;durP2;ratioP2;P2;SDS_P1;SDS_P2;PMS_P1;PMS_P2;Temp;Humidity;BMP_temperature;BMP_pressure;BME280_temperature;BME280_humidity;BME280_pressure;Samples;Min_cycle;Max_cycle;Signal;HPM_P1;HPM_P2
2023/06/25 00:00:44;;;;;;;;;;;24.30;70.60;;;;;;5016489;28;87333;-43
2023/06/25 00:03:11;;;;;;;;;;;24.20;70.50;;;;;;5012071;28;88202;-43
2023/06/25 00:05:36;;;;;;;;;;;24.20;70.60;;;;;;5015051;28;86323;-43
2023/06/25 00:08:02;;;;;;;;;;;24.20;70.60;;;;;;5013761;28;87735;-44
2023/06/25 00:10:27;;;;;;;;;;;24.10;70.50;;;;;;5013453;28;89198;-43
2023/06/25 00:12:53;;;;;;;;;;;24.20;70.50;;;;;;5012005;28;88072;-43
2023/06/25 00:15:18;;;;;;;;;;;24.10;70.70;;;;;;5013677;28;88265;-43
2023/06/25 00:17:47;;;;;;;;;;;24.10;70.90;;;;;;5011322;28;88268;-44
2023/06/25 00:20:14;;;;;;;;;;;24.10;70.80;;;;;;5014339;28;87447;-44
2023/06/25 00:22:39;;;;;;;;;;;24.10;70.70;;;;;;5016119;28;87081;-43
2023/06/25 00:25:05;;;;;;;;;;;24.10;70.80;;;;;;5014589;28;87137;-43
2023/06/25 00:27:30;;;;;;;;;;;24.10;70.70;;;;;;5011199;28;87390;-43
2023/06/25 00:30:00;;;;;;;;;;;24.10;70.80;;;;;;5014728;28;87359;-43
2023/06/25 00:32:25;;;;;;;;;;;24.10;70.70;;;;;;5011245;28;87132;-45
2023/06/25 00:34:57;;;;;;;;;;;24.10;70.80;;;;;;5012996;28;87405;-43
2023/06/25 00:37:23;;;;;;;;;;;24.10;70.90;;;;;;5013109;28;90384;-43
2023/06/25 00:39:48;;;;;;;;;;;24.10;70.90;;;;;;5012862;28;87112;-44
2023/06/25 00:42:15;;;;;;;;;;;24.00;70.80;;;;;;5015594;28;87099;-45
2023/06/25 00:44:40;;;;;;;;;;;24.00;70.90;;;;;;5012823;28;87255;-43
2023/06/25 00:47:16;;;;;;;;;;;24.00;70.90;;;;;;5014228;28;88755;-42
2023/06/25 00:49:43;;;;;;;;;;;24.00;70.90;;;;;;5010421;28;89475;-43
2023/06/25 00:52:10;;;;;;;;;;;24.00;71.00;;;;;;5013811;28;87167;-43
2023/06/25 00:54:37;;;;;;;;;;;24.00;71.10;;;;;;5013810;28;87383;-43
2023/06/25 00:57:04;;;;;;;;;;;23.90;71.10;;;;;;5012960;28;89784;-44
2023/06/25 00:59:30;;;;;;;;;;;24.00;71.20;;;;;;5009522;28;87173;-44
2023/06/25 01:01:58;;;;;;;;;;;23.90;71.20;;;;;;5012529;28;89089;-44
2023/06/25 01:04:28;;;;;;;;;;;23.80;71.40;;;;;;5015133;28;87980;-44
2023/06/25 01:06:56;;;;;;;;;;;23.90;71.30;;;;;;5013904;28;87889;-43
2023/06/25 01:09:22;;;;;;;;;;;23.90;71.20;;;;;;5012070;28;88106;-43
2023/06/25 01:11:58;;;;;;;;;;;23.90;71.30;;;;;;5013563;28;87101;-43
2023/06/25 01:14:27;;;;;;;;;;;23.80;71.30;;;;;;5010536;28;87495;-45
2023/06/25 01:16:53;;;;;;;;;;;23.80;71.30;;;;;;5007014;28;89457;-43
2023/06/25 01:19:19;;;;;;;;;;;23.80;71.50;;;;;;5008967;28;86374;-43
2023/06/25 01:21:45;;;;;;;;;;;23.80;71.50;;;;;;5011158;28;88043;-43
2023/06/25 01:24:11;;;;;;;;;;;23.80;71.50;;;;;;5014207;28;89576;-43
2023/06/25 01:26:36;;;;;;;;;;;23.80;71.50;;;;;;5014060;28;87967;-43
2023/06/25 01:29:02;;;;;;;;;;;23.80;72.20;;;;;;5009966;28;87989;-43
2023/06/25 01:31:30;;;;;;;;;;;23.80;71.50;;;;;;5014210;28;87209;-43
2023/06/25 01:33:56;;;;;;;;;;;23.80;71.50;;;;;;5010845;28;89099;-44
2023/06/25 01:36:22;;;;;;;;;;;23.70;71.60;;;;;;5013108;28;88071;-43
2023/06/25 01:38:47;;;;;;;;;;;23.70;71.70;;;;;;5011347;28;87116;-43
2023/06/25 01:41:13;;;;;;;;;;;23.70;71.50;;;;;;5007005;28;87980;-45
2023/06/25 01:43:38;;;;;;;;;;;23.70;71.70;;;;;;5013088;28;87446;-43
2023/06/25 01:46:04;;;;;;;;;;;23.70;71.70;;;;;;5012946;28;87031;-43
2023/06/25 01:48:30;;;;;;;;;;;23.60;71.60;;;;;;5013189;28;87165;-43
2023/06/25 01:50:56;;;;;;;;;;;23.60;71.60;;;;;;5012333;28;88030;-44
2023/06/25 01:53:22;;;;;;;;;;;23.60;71.80;;;;;;5012181;28;89627;-43
2023/06/25 01:55:47;;;;;;;;;;;23.60;71.80;;;;;;5012503;28;88628;-43
2023/06/25 01:58:13;;;;;;;;;;;23.60;72.50;;;;;;5010722;28;87123;-43
2023/06/25 02:00:40;;;;;;;;;;;23.60;71.80;;;;;;5010329;28;87530;-43
2023/06/25 02:03:06;;;;;;;;;;;23.50;71.80;;;;;;5012791;28;89284;-43
2023/06/25 02:05:31;;;;;;;;;;;23.50;71.90;;;;;;5010400;28;87374;-43
2023/06/25 02:07:57;;;;;;;;;;;23.50;71.80;;;;;;5014450;28;87699;-43
2023/06/25 02:10:23;;;;;;;;;;;23.50;71.90;;;;;;5012856;28;89256;-44
2023/06/25 02:12:48;;;;;;;;;;;23.50;72.10;;;;;;5013924;28;88045;-43
2023/06/25 02:15:14;;;;;;;;;;;23.50;72.00;;;;;;5008894;28;89176;-43
2023/06/25 02:17:39;;;;;;;;;;;23.50;71.90;;;;;;5006472;28;87008;-42
2023/06/25 02:20:05;;;;;;;;;;;23.50;72.10;;;;;;5013339;28;87137;-44
2023/06/25 02:22:31;;;;;;;;;;;23.40;72.00;;;;;;5010177;28;88227;-44
2023/06/25 02:24:56;;;;;;;;;;;23.50;72.00;;;;;;5013014;28;87182;-43
2023/06/25 02:27:22;;;;;;;;;;;23.40;72.10;;;;;;5011209;28;87050;-43
2023/06/25 02:29:47;;;;;;;;;;;23.40;72.00;;;;;;5010066;28;88682;-43
2023/06/25 02:32:13;;;;;;;;;;;23.40;72.10;;;;;;5014786;28;86376;-43
2023/06/25 02:34:38;;;;;;;;;;;23.40;72.20;;;;;;5008973;28;88082;-43
2023/06/25 02:37:11;;;;;;;;;;;23.40;72.20;;;;;;5012343;28;87174;-42
2023/06/25 02:39:36;;;;;;;;;;;23.40;72.20;;;;;;5009563;28;88093;-44
2023/06/25 02:42:02;;;;;;;;;;;23.30;72.10;;;;;;5012356;28;88125;-43
2023/06/25 02:44:27;;;;;;;;;;;23.30;72.20;;;;;;5008957;28;87182;-43
2023/06/25 02:46:53;;;;;;;;;;;23.30;72.20;;;;;;5011424;28;88508;-43
2023/06/25 02:49:18;;;;;;;;;;;23.30;72.30;;;;;;5011299;28;88042;-45
2023/06/25 02:51:44;;;;;;;;;;;23.30;72.10;;;;;;5014954;28;87005;-43
2023/06/25 02:54:09;;;;;;;;;;;23.30;72.30;;;;;;5011609;28;88147;-44
2023/06/25 02:56:35;;;;;;;;;;;23.30;72.30;;;;;;5011705;28;86392;-44
2023/06/25 02:59:00;;;;;;;;;;;23.30;72.30;;;;;;5012649;28;87037;-43
2023/06/25 03:01:26;;;;;;;;;;;23.30;72.20;;;;;;5009825;28;88067;-43
2023/06/25 03:03:51;;;;;;;;;;;23.20;72.20;;;;;;5009808;28;88091;-43
2023/06/25 03:06:17;;;;;;;;;;;23.20;72.30;;;;;;5013175;28;88388;-45
2023/06/25 03:08:42;;;;;;;;;;;23.20;72.20;;;;;;5009694;28;88083;-45
2023/06/25 03:11:08;;;;;;;;;;;23.20;72.40;;;;;;5014904;28;87399;-45
2023/06/25 03:13:33;;;;;;;;;;;23.20;72.40;;;;;;5014547;28;88152;-44
2023/06/25 03:15:59;;;;;;;;;;;23.20;72.50;;;;;;5016239;28;87192;-45
2023/06/25 03:18:24;;;;;;;;;;;23.20;72.50;;;;;;5013608;28;87401;-45
2023/06/25 03:20:50;;;;;;;;;;;23.10;72.30;;;;;;5013802;28;87688;-44
2023/06/25 03:23:16;;;;;;;;;;;23.10;72.40;;;;;;5014683;28;87209;-44
2023/06/25 03:25:41;;;;;;;;;;;23.10;72.40;;;;;;5013823;28;87009;-43
2023/06/25 03:28:07;;;;;;;;;;;23.10;72.50;;;;;;5014699;28;88977;-45
2023/06/25 03:30:32;;;;;;;;;;;23.10;72.50;;;;;;5013893;28;88317;-45
2023/06/25 03:32:58;;;;;;;;;;;23.10;72.50;;;;;;5015006;28;87446;-45
2023/06/25 03:35:23;;;;;;;;;;;23.10;72.50;;;;;;5014987;28;88036;-44
2023/06/25 03:37:49;;;;;;;;;;;23.10;72.60;;;;;;5014974;28;87641;-45
2023/06/25 03:40:14;;;;;;;;;;;23.00;72.60;;;;;;5013400;28;87939;-44
2023/06/25 03:42:40;;;;;;;;;;;23.00;72.60;;;;;;5014170;28;87072;-45
2023/06/25 03:45:05;;;;;;;;;;;23.10;72.50;;;;;;5014622;28;86821;-43
2023/06/25 03:47:31;;;;;;;;;;;23.10;72.60;;;;;;5010453;28;88068;-47
2023/06/25 03:49:56;;;;;;;;;;;23.10;72.60;;;;;;5006584;28;87168;-45
2023/06/25 03:52:22;;;;;;;;;;;23.00;72.70;;;;;;5012636;28;88587;-48
2023/06/25 03:54:47;;;;;;;;;;;23.00;72.70;;;;;;5011235;28;88114;-48
2023/06/25 03:57:13;;;;;;;;;;;23.00;72.60;;;;;;5018784;28;87085;-45
2023/06/25 03:59:39;;;;;;;;;;;23.00;72.70;;;;;;4998449;28;87207;-47
2023/06/25 04:02:05;;;;;;;;;;;22.90;72.60;;;;;;5013094;28;87151;-50
2023/06/25 04:04:30;;;;;;;;;;;22.90;72.60;;;;;;5011646;28;87337;-43
2023/06/25 04:06:56;;;;;;;;;;;23.00;72.70;;;;;;5007157;28;88187;-46
2023/06/25 04:09:21;;;;;;;;;;;22.90;72.70;;;;;;5005636;28;87428;-43
2023/06/25 04:11:47;;;;;;;;;;;22.90;72.70;;;;;;5010838;28;87069;-44
2023/06/25 04:14:12;;;;;;;;;;;22.90;72.70;;;;;;5012957;28;88099;-43
2023/06/25 04:16:38;;;;;;;;;;;22.90;72.80;;;;;;5003088;28;88106;-44
2023/06/25 04:19:03;;;;;;;;;;;22.90;72.80;;;;;;5009516;28;87826;-43
2023/06/25 04:21:29;;;;;;;;;;;22.90;72.70;;;;;;5012052;28;87152;-44
2023/06/25 04:23:54;;;;;;;;;;;22.90;72.70;;;;;;5009400;28;87775;-43
2023/06/25 04:26:19;;;;;;;;;;;22.90;72.90;;;;;;5012106;28;90978;-43
2023/06/25 04:28:45;;;;;;;;;;;22.90;72.80;;;;;;5009160;28;87097;-44
2023/06/25 04:31:10;;;;;;;;;;;22.80;72.70;;;;;;5009251;28;87475;-44
2023/06/25 04:33:41;;;;;;;;;;;22.80;72.90;;;;;;5006689;28;87357;-43
2023/06/25 04:36:07;;;;;;;;;;;22.80;72.90;;;;;;5014081;28;87133;-43
2023/06/25 04:38:33;;;;;;;;;;;22.80;72.90;;;;;;5014653;28;87548;-43
2023/06/25 04:40:59;;;;;;;;;;;22.80;72.90;;;;;;5001411;28;88684;-43
2023/06/25 04:43:24;;;;;;;;;;;22.70;73.00;;;;;;5008324;28;87433;-43
2023/06/25 04:45:50;;;;;;;;;;;22.80;72.90;;;;;;5012274;28;88074;-44
2023/06/25 04:48:15;;;;;;;;;;;22.80;73.00;;;;;;5011297;28;87210;-43
2023/06/25 04:50:41;;;;;;;;;;;22.80;72.90;;;;;;5006607;28;87508;-44
2023/06/25 04:53:06;;;;;;;;;;;22.80;73.00;;;;;;5006525;28;89573;-45
2023/06/25 04:55:32;;;;;;;;;;;22.80;73.00;;;;;;5015390;28;87055;-43
2023/06/25 04:57:57;;;;;;;;;;;22.70;72.90;;;;;;5009595;28;87516;-43
2023/06/25 05:00:23;;;;;;;;;;;22.70;73.00;;;;;;5008190;28;88842;-44
2023/06/25 05:02:48;;;;;;;;;;;22.70;73.10;;;;;;5012647;28;87188;-43
2023/06/25 05:05:14;;;;;;;;;;;22.70;73.10;;;;;;5010640;28;89762;-43
2023/06/25 05:07:39;;;;;;;;;;;22.70;73.00;;;;;;5008611;28;88471;-45
2023/06/25 05:10:05;;;;;;;;;;;22.70;72.90;;;;;;5008295;28;89066;-44
2023/06/25 05:12:31;;;;;;;;;;;22.70;73.00;;;;;;5010007;28;88013;-44
2023/06/25 05:14:56;;;;;;;;;;;22.70;73.10;;;;;;5012813;28;87110;-44
2023/06/25 05:17:21;;;;;;;;;;;22.70;73.00;;;;;;5011706;28;87164;-43
2023/06/25 05:19:47;;;;;;;;;;;22.70;73.10;;;;;;5003884;28;88266;-45
2023/06/25 05:22:12;;;;;;;;;;;22.70;73.10;;;;;;5011446;28;86594;-43
2023/06/25 05:24:38;;;;;;;;;;;22.70;73.10;;;;;;5013051;28;88227;-44
2023/06/25 05:27:04;;;;;;;;;;;22.70;73.10;;;;;;5009857;28;87344;-43
2023/06/25 05:29:29;;;;;;;;;;;22.70;73.00;;;;;;5001108;28;88154;-43
2023/06/25 05:31:58;;;;;;;;;;;22.70;73.00;;;;;;5007908;28;88045;-45
2023/06/25 05:34:24;;;;;;;;;;;22.70;73.10;;;;;;5010461;28;87213;-43
2023/06/25 05:36:50;;;;;;;;;;;22.70;73.10;;;;;;5001924;28;88671;-43
2023/06/25 05:39:15;;;;;;;;;;;22.70;73.10;;;;;;4998076;28;88287;-43
2023/06/25 05:41:41;;;;;;;;;;;22.60;73.10;;;;;;5011323;28;87174;-45
2023/06/25 05:44:06;;;;;;;;;;;22.60;73.10;;;;;;5015642;28;87477;-45
2023/06/25 05:46:32;;;;;;;;;;;22.70;73.10;;;;;;5003148;28;88206;-43
2023/06/25 05:48:57;;;;;;;;;;;22.60;73.10;;;;;;5004701;28;87120;-43
2023/06/25 05:51:23;;;;;;;;;;;22.60;73.70;;;;;;5006470;28;88144;-43
2023/06/25 05:53:50;;;;;;;;;;;22.70;73.10;;;;;;5010597;28;88195;-44
2023/06/25 05:56:16;;;;;;;;;;;22.70;73.10;;;;;;5001598;28;88858;-43
2023/06/25 05:58:42;;;;;;;;;;;22.60;73.10;;;;;;5007220;28;88313;-43
2023/06/25 06:01:08;;;;;;;;;;;22.60;73.20;;;;;;5011112;28;87077;-44
2023/06/25 06:03:33;;;;;;;;;;;22.60;73.20;;;;;;5008219;28;87516;-42
2023/06/25 06:05:59;;;;;;;;;;;22.60;73.20;;;;;;5004142;28;88269;-45
2023/06/25 06:08:25;;;;;;;;;;;22.60;73.20;;;;;;5004745;28;87901;-43
2023/06/25 06:10:51;;;;;;;;;;;22.60;73.20;;;;;;5011730;28;88647;-43
2023/06/25 06:13:16;;;;;;;;;;;22.60;73.30;;;;;;5006160;28;87200;-44
2023/06/25 06:15:42;;;;;;;;;;;22.60;73.20;;;;;;5006245;28;90325;-43
2023/06/25 06:18:07;;;;;;;;;;;22.60;73.30;;;;;;5005129;28;89097;-43
2023/06/25 06:20:33;;;;;;;;;;;22.60;73.30;;;;;;5011493;28;87117;-43
2023/06/25 06:22:59;;;;;;;;;;;22.60;73.20;;;;;;5003509;28;88661;-42
2023/06/25 06:25:25;;;;;;;;;;;22.60;73.20;;;;;;5003070;28;87987;-43
2023/06/25 06:27:52;;;;;;;;;;;22.60;73.30;;;;;;5013651;28;87143;-44
2023/06/25 06:30:17;;;;;;;;;;;22.60;73.30;;;;;;5011222;28;89240;-44
2023/06/25 06:32:43;;;;;;;;;;;22.60;73.30;;;;;;5005356;28;87220;-44
2023/06/25 06:35:09;;;;;;;;;;;22.60;73.30;;;;;;5001032;28;88934;-44
2023/06/25 06:37:35;;;;;;;;;;;22.70;73.40;;;;;;5010012;28;88137;-43
2023/06/25 06:40:00;;;;;;;;;;;22.60;73.30;;;;;;5006700;28;87198;-43
2023/06/25 06:42:25;;;;;;;;;;;22.70;73.40;;;;;;5000584;28;89229;-43
2023/06/25 06:44:51;;;;;;;;;;;22.60;73.40;;;;;;4993386;28;88014;-43
2023/06/25 06:47:16;;;;;;;;;;;22.70;74.00;;;;;;5023049;28;87175;-43
2023/06/25 06:49:42;;;;;;;;;;;22.70;73.40;;;;;;5012369;28;88323;-45
2023/06/25 06:52:07;;;;;;;;;;;22.70;73.40;;;;;;5009869;28;87243;-43
2023/06/25 06:54:33;;;;;;;;;;;22.70;73.50;;;;;;5012012;28;87556;-43
2023/06/25 06:56:58;;;;;;;;;;;22.70;73.50;;;;;;5017060;28;88142;-43
2023/06/25 06:59:24;;;;;;;;;;;22.60;73.50;;;;;;5019068;28;86428;-43
2023/06/25 07:01:50;;;;;;;;;;;22.70;73.50;;;;;;5005360;28;87152;-44
2023/06/25 07:04:15;;;;;;;;;;;22.70;73.50;;;;;;5010599;28;88631;-42
2023/06/25 07:06:41;;;;;;;;;;;22.70;73.60;;;;;;5012500;28;88184;-42
2023/06/25 07:09:06;;;;;;;;;;;22.70;74.20;;;;;;5019315;28;88344;-44
2023/06/25 07:11:32;;;;;;;;;;;22.70;73.50;;;;;;5009664;28;87201;-43
2023/06/25 07:13:57;;;;;;;;;;;22.70;73.50;;;;;;5015920;28;88000;-43
2023/06/25 07:16:23;;;;;;;;;;;22.80;73.70;;;;;;5018734;28;88158;-43
2023/06/25 07:18:48;;;;;;;;;;;22.70;73.60;;;;;;5013656;28;87535;-44
2023/06/25 07:21:14;;;;;;;;;;;22.80;73.70;;;;;;4998447;28;88850;-43
2023/06/25 07:23:39;;;;;;;;;;;22.70;73.70;;;;;;5015809;28;87335;-46
2023/06/25 07:26:05;;;;;;;;;;;22.70;73.70;;;;;;5015744;28;86863;-43
2023/06/25 07:28:31;;;;;;;;;;;22.70;73.80;;;;;;5008552;28;88934;-43
2023/06/25 07:30:56;;;;;;;;;;;22.70;73.80;;;;;;5007086;28;91257;-46
2023/06/25 07:33:22;;;;;;;;;;;22.70;73.90;;;;;;5015658;28;89857;-46
2023/06/25 07:35:47;;;;;;;;;;;22.70;73.80;;;;;;5017177;28;88063;-44
2023/06/25 07:38:13;;;;;;;;;;;22.70;74.00;;;;;;5005834;28;87331;-43
2023/06/25 07:40:38;;;;;;;;;;;22.70;74.00;;;;;;5007985;28;88009;-43
2023/06/25 07:43:04;;;;;;;;;;;22.70;74.00;;;;;;5016749;28;88074;-45
2023/06/25 07:45:29;;;;;;;;;;;22.70;74.00;;;;;;5011129;28;87372;-46
2023/06/25 07:47:55;;;;;;;;;;;22.70;74.00;;;;;;5010287;28;87322;-44
2023/06/25 07:50:21;;;;;;;;;;;22.70;74.00;;;;;;5011073;28;88472;-46
2023/06/25 07:52:46;;;;;;;;;;;22.70;74.10;;;;;;5018753;28;87164;-44
2023/06/25 07:55:12;;;;;;;;;;;22.70;74.10;;;;;;5009135;28;88971;-43
2023/06/25 07:57:37;;;;;;;;;;;22.70;74.00;;;;;;5006505;28;87864;-43
2023/06/25 08:00:03;;;;;;;;;;;22.70;74.00;;;;;;5009360;28;87493;-45
2023/06/25 08:02:28;;;;;;;;;;;22.70;74.00;;;;;;5012809;28;87532;-44
2023/06/25 08:04:56;;;;;;;;;;;22.70;74.00;;;;;;5005001;28;87602;-42
2023/06/25 08:07:21;;;;;;;;;;;22.70;74.10;;;;;;5004990;28;89285;-43
2023/06/25 08:09:48;;;;;;;;;;;22.60;74.10;;;;;;5010660;28;88240;-45
2023/06/25 08:12:16;;;;;;;;;;;22.70;74.10;;;;;;5011033;28;86328;-44
2023/06/25 08:14:42;;;;;;;;;;;22.70;74.10;;;;;;5008116;28;87658;-48
2023/06/25 08:17:08;;;;;;;;;;;22.70;74.10;;;;;;5004464;28;87675;-44
2023/06/25 08:19:33;;;;;;;;;;;22.70;74.10;;;;;;5010159;28;88003;-43
2023/06/25 08:21:59;;;;;;;;;;;22.70;74.10;;;;;;5011137;28;87940;-43
2023/06/25 08:24:24;;;;;;;;;;;22.70;74.10;;;;;;5007366;28;87189;-43
2023/06/25 08:26:50;;;;;;;;;;;22.70;74.10;;;;;;5005375;28;88353;-44
2023/06/25 08:29:15;;;;;;;;;;;22.70;74.10;;;;;;5010353;28;88121;-43
2023/06/25 08:31:40;;;;;;;;;;;22.70;74.20;;;;;;5013721;28;87038;-42
2023/06/25 08:34:06;;;;;;;;;;;22.70;74.10;;;;;;5004370;28;87824;-43
2023/06/25 08:36:32;;;;;;;;;;;22.70;74.10;;;;;;5005795;28;87429;-43
2023/06/25 08:38:57;;;;;;;;;;;22.70;74.10;;;;;;5012064;28;87222;-43
2023/06/25 08:41:23;;;;;;;;;;;22.70;74.10;;;;;;5010808;28;88402;-43
2023/06/25 08:43:49;;;;;;;;;;;22.70;74.10;;;;;;5000470;28;88224;-43
2023/06/25 08:46:14;;;;;;;;;;;22.70;74.00;;;;;;5000741;28;88385;-42
2023/06/25 08:48:40;;;;;;;;;;;22.70;74.00;;;;;;5011668;28;88049;-43
2023/06/25 08:51:12;;;;;;;;;;;22.70;74.00;;;;;;5010826;28;87090;-44
2023/06/25 08:53:37;;;;;;;;;;;22.70;74.00;;;;;;5002237;28;91936;-46
2023/06/25 08:56:05;;;;;;;;;;;22.70;74.00;;;;;;5006938;28;88559;-43
2023/06/25 08:58:31;;;;;;;;;;;22.70;74.00;;;;;;5011545;28;87364;-43
2023/06/25 09:00:56;;;;;;;;;;;22.70;74.00;;;;;;5008159;28;88894;-44
2023/06/25 09:03:22;;;;;;;;;;;22.70;74.00;;;;;;5005956;28;87169;-43
2023/06/25 09:05:52;;;;;;;;;;;22.70;74.00;;;;;;5006627;28;88888;-43
2023/06/25 09:08:17;;;;;;;;;;;22.70;74.10;;;;;;5008830;28;90326;-45
2023/06/25 09:10:48;;;;;;;;;;;22.70;74.10;;;;;;5005654;28;87168;-43
2023/06/25 09:13:19;;;;;;;;;;;22.70;74.10;;;;;;5006232;28;89032;-43
2023/06/25 09:15:45;;;;;;;;;;;22.70;74.00;;;;;;5007252;28;88073;-43
2023/06/25 09:18:10;;;;;;;;;;;22.70;74.00;;;;;;5013905;28;87602;-43
2023/06/25 09:20:37;;;;;;;;;;;22.70;74.00;;;;;;5006961;28;88210;-43
2023/06/25 09:23:05;;;;;;;;;;;22.70;74.00;;;;;;5003366;28;88315;-43
2023/06/25 09:25:30;;;;;;;;;;;22.70;74.00;;;;;;5007762;28;88889;-44
2023/06/25 09:27:58;;;;;;;;;;;22.70;74.00;;;;;;5010701;28;88799;-43
2023/06/25 09:30:23;;;;;;;;;;;22.70;74.00;;;;;;5011352;28;87140;-43
2023/06/25 09:32:53;;;;;;;;;;;22.70;74.00;;;;;;5010222;28;90381;-45
2023/06/25 09:35:21;;;;;;;;;;;22.70;74.00;;;;;;5012070;28;88102;-44
2023/06/25 09:37:49;;;;;;;;;;;22.70;74.00;;;;;;5012155;28;87142;-43
2023/06/25 09:40:14;;;;;;;;;;;22.70;74.00;;;;;;5015656;28;87238;-43
2023/06/25 09:42:41;;;;;;;;;;;22.70;74.00;;;;;;5011813;28;87145;-43
2023/06/25 09:45:08;;;;;;;;;;;22.70;74.00;;;;;;5012854;28;87367;-43
2023/06/25 09:47:34;;;;;;;;;;;22.70;73.90;;;;;;5011514;28;89937;-43
2023/06/25 09:50:00;;;;;;;;;;;22.70;74.00;;;;;;5013708;28;86452;-43
2023/06/25 09:52:26;;;;;;;;;;;22.70;74.10;;;;;;5010217;28;88103;-43
2023/06/25 09:54:53;;;;;;;;;;;22.70;74.00;;;;;;5011998;28;88011;-44
2023/06/25 09:57:19;;;;;;;;;;;22.70;74.00;;;;;;5011668;28;88024;-43
2023/06/25 09:59:45;;;;;;;;;;;22.70;74.00;;;;;;5011503;28;89803;-45
2023/06/25 10:02:13;;;;;;;;;;;22.70;74.00;;;;;;5014893;28;89566;-43
2023/06/25 10:04:39;;;;;;;;;;;22.70;73.90;;;;;;5012367;28;87470;-44
2023/06/25 10:07:04;;;;;;;;;;;22.70;73.90;;;;;;5010897;28;88247;-43
2023/06/25 10:09:30;;;;;;;;;;;22.80;73.90;;;;;;5011449;28;87230;-43
2023/06/25 10:11:56;;;;;;;;;;;22.70;73.80;;;;;;5012779;28;87669;-43
2023/06/25 10:14:21;;;;;;;;;;;22.80;73.90;;;;;;5009925;28;87379;-43
2023/06/25 10:16:53;;;;;;;;;;;22.80;73.90;;;;;;5011388;28;87578;-43
2023/06/25 10:19:23;;;;;;;;;;;22.80;73.80;;;;;;5012449;28;87560;-43
2023/06/25 10:22:08;;;;;;;;;;;22.90;73.80;;;;;;5010416;28;89963;-45
2023/06/25 10:24:40;;;;;;;;;;;22.90;73.80;;;;;;5012698;28;87708;-43
2023/06/25 10:27:06;;;;;;;;;;;22.80;73.70;;;;;;5010802;28;89120;-43
2023/06/25 10:29:40;;;;;;;;;;;22.90;73.80;;;;;;5010585;28;87224;-43
2023/06/25 10:32:06;;;;;;;;;;;22.90;73.70;;;;;;5011741;28;88810;-44
2023/06/25 10:34:35;;;;;;;;;;;22.90;73.70;;;;;;5010094;28;91313;-43
2023/06/25 10:37:03;;;;;;;;;;;22.90;73.70;;;;;;5011418;28;87162;-43
2023/06/25 10:39:38;;;;;;;;;;;22.90;73.70;;;;;;5005765;28;87461;-43
2023/06/25 10:42:04;;;;;;;;;;;22.90;73.70;;;;;;5011400;28;88101;-44
2023/06/25 10:44:29;;;;;;;;;;;22.90;73.70;;;;;;5009662;28;87678;-43
2023/06/25 10:47:02;;;;;;;;;;;22.90;73.80;;;;;;5013080;28;88173;-44
2023/06/25 10:49:27;;;;;;;;;;;22.90;73.70;;;;;;5008215;28;87100;-43
2023/06/25 10:51:55;;;;;;;;;;;23.00;73.80;;;;;;5006998;28;87806;-43
2023/06/25 10:54:21;;;;;;;;;;;23.00;73.80;;;;;;5011201;28;88139;-43
2023/06/25 10:56:46;;;;;;;;;;;22.90;73.70;;;;;;5010246;28;87189;-43
2023/06/25 10:59:12;;;;;;;;;;;23.00;73.80;;;;;;5009074;28;87458;-43
2023/06/25 11:01:38;;;;;;;;;;;23.00;73.80;;;;;;5009689;28;88385;-43
2023/06/25 11:04:12;;;;;;;;;;;23.00;73.80;;;;;;5013019;28;86410;-43
2023/06/25 11:06:57;;;;;;;;;;;23.00;73.80;;;;;;5012478;28;86969;-44
2023/06/25 11:09:22;;;;;;;;;;;23.00;73.80;;;;;;5009871;28;87279;-44
2023/06/25 11:11:51;;;;;;;;;;;23.00;73.80;;;;;;5010430;28;88766;-43
2023/06/25 11:14:16;;;;;;;;;;;23.00;73.80;;;;;;5011018;28;88155;-43
2023/06/25 11:16:46;;;;;;;;;;;23.00;73.80;;;;;;5010559;28;88271;-43
2023/06/25 11:19:11;;;;;;;;;;;23.00;73.80;;;;;;5011504;28;88933;-44
2023/06/25 11:21:37;;;;;;;;;;;23.00;73.80;;;;;;5011209;28;88334;-45
2023/06/25 11:24:09;;;;;;;;;;;23.00;73.80;;;;;;5010623;28;87048;-44
2023/06/25 11:26:41;;;;;;;;;;;23.00;73.80;;;;;;5010646;28;88872;-44
2023/06/25 11:29:07;;;;;;;;;;;23.10;73.80;;;;;;5015688;28;87341;-44
2023/06/25 11:31:48;;;;;;;;;;;23.10;73.80;;;;;;5010063;28;87314;-43
2023/06/25 11:34:20;;;;;;;;;;;23.10;73.80;;;;;;5009553;28;88276;-43
2023/06/25 11:36:47;;;;;;;;;;;23.10;73.80;;;;;;5013206;28;88577;-47
2023/06/25 11:39:13;;;;;;;;;;;23.00;73.80;;;;;;5013376;28;89583;-43
2023/06/25 11:41:38;;;;;;;;;;;23.10;73.90;;;;;;5013856;28;88553;-44
2023/06/25 11:44:14;;;;;;;;;;;23.10;73.90;;;;;;5012326;28;87236;-44
2023/06/25 11:46:41;;;;;;;;;;;23.10;73.90;;;;;;5010524;28;87470;-45
2023/06/25 11:49:08;;;;;;;;;;;23.10;73.90;;;;;;5014256;28;89361;-44
2023/06/25 11:51:33;;;;;;;;;;;23.10;73.90;;;;;;5015480;28;87197;-45
2023/06/25 11:53:59;;;;;;;;;;;23.10;73.90;;;;;;5011418;28;86494;-45
2023/06/25 11:56:24;;;;;;;;;;;23.10;73.90;;;;;;5012881;28;87456;-44
2023/06/25 11:58:50;;;;;;;;;;;23.10;73.80;;;;;;5014377;28;87746;-44
2023/06/25 12:01:15;;;;;;;;;;;23.10;73.80;;;;;;5007165;28;89131;-43
2023/06/25 12:03:41;;;;;;;;;;;23.10;73.80;;;;;;5014765;28;87169;-45
2023/06/25 12:06:07;;;;;;;;;;;23.10;73.90;;;;;;5013483;28;87715;-43
2023/06/25 12:08:33;;;;;;;;;;;23.10;73.80;;;;;;5011141;28;87905;-43
2023/06/25 12:10:58;;;;;;;;;;;23.20;73.90;;;;;;5015363;28;87161;-44
2023/06/25 12:13:24;;;;;;;;;;;23.10;73.90;;;;;;5015080;28;87488;-44
2023/06/25 12:15:49;;;;;;;;;;;23.10;74.00;;;;;;5013690;28;87102;-44
2023/06/25 12:18:15;;;;;;;;;;;23.10;74.60;;;;;;5012126;28;88941;-47
2023/06/25 12:20:40;;;;;;;;;;;23.20;73.90;;;;;;5015609;28;88047;-44
2023/06/25 12:23:06;;;;;;;;;;;23.10;73.80;;;;;;5012472;28;87130;-47
2023/06/25 12:25:31;;;;;;;;;;;23.10;73.90;;;;;;5011054;28;88065;-43
2023/06/25 12:27:57;;;;;;;;;;;23.20;73.90;;;;;;5014835;28;88228;-45
2023/06/25 12:30:22;;;;;;;;;;;23.10;73.80;;;;;;5012638;28;87185;-49
2023/06/25 12:32:48;;;;;;;;;;;23.10;73.80;;;;;;5009110;28;87493;-44
2023/06/25 12:35:13;;;;;;;;;;;23.20;73.80;;;;;;5015909;28;88035;-51
2023/06/25 12:37:39;;;;;;;;;;;23.20;73.80;;;;;;5014469;28;87530;-45
2023/06/25 12:40:09;;;;;;;;;;;23.20;73.70;;;;;;5010001;28;88297;-45
2023/06/25 12:42:34;;;;;;;;;;;23.20;73.70;;;;;;5013554;28;86379;-47
2023/06/25 12:45:01;;;;;;;;;;;23.20;73.60;;;;;;5013990;28;87876;-43
2023/06/25 12:47:27;;;;;;;;;;;23.20;73.60;;;;;;5011556;28;88258;-43
2023/06/25 12:49:52;;;;;;;;;;;23.20;73.70;;;;;;5013245;28;88055;-43
2023/06/25 12:52:18;;;;;;;;;;;23.20;73.70;;;;;;5013604;28;88233;-43
2023/06/25 12:54:43;;;;;;;;;;;23.20;73.70;;;;;;5012296;28;88169;-43
2023/06/25 12:57:09;;;;;;;;;;;23.30;73.80;;;;;;5016872;28;87441;-43
2023/06/25 12:59:34;;;;;;;;;;;23.30;73.80;;;;;;5012186;28;89285;-44
2023/06/25 13:02:00;;;;;;;;;;;23.30;73.80;;;;;;5010622;28;87045;-43
2023/06/25 13:04:25;;;;;;;;;;;23.30;73.70;;;;;;5014647;28;87884;-43
2023/06/25 13:06:51;;;;;;;;;;;23.30;73.70;;;;;;5012156;28;86898;-43
2023/06/25 13:09:16;;;;;;;;;;;23.30;73.70;;;;;;5014279;28;87170;-43
2023/06/25 13:11:42;;;;;;;;;;;23.30;73.70;;;;;;5011556;28;87382;-44
2023/06/25 13:14:08;;;;;;;;;;;23.30;73.70;;;;;;5013981;28;90406;-44
2023/06/25 13:16:33;;;;;;;;;;;23.30;73.60;;;;;;5014381;28;87308;-44
2023/06/25 13:18:59;;;;;;;;;;;23.30;73.70;;;;;;5010188;28;89233;-43
2023/06/25 13:21:24;;;;;;;;;;;23.30;73.70;;;;;;5014546;28;87339;-43
2023/06/25 13:23:50;;;;;;;;;;;23.30;73.60;;;;;;5011199;28;87462;-43
2023/06/25 13:26:15;;;;;;;;;;;23.30;73.60;;;;;;5013897;28;88355;-43
2023/06/25 13:28:41;;;;;;;;;;;23.40;73.60;;;;;;5012390;28;87181;-43
2023/06/25 13:31:06;;;;;;;;;;;23.40;73.60;;;;;;5013091;28;88040;-44
2023/06/25 13:33:32;;;;;;;;;;;23.40;73.60;;;;;;5008102;28;88165;-45
2023/06/25 13:35:57;;;;;;;;;;;23.40;73.50;;;;;;5011115;28;87170;-43
2023/06/25 13:38:23;;;;;;;;;;;23.40;73.60;;;;;;5011055;28;90446;-44
2023/06/25 13:40:48;;;;;;;;;;;23.40;73.50;;;;;;5010007;28;87223;-43
2023/06/25 13:43:14;;;;;;;;;;;23.40;73.60;;;;;;5010436;28;87451;-44
2023/06/25 13:45:40;;;;;;;;;;;23.50;73.50;;;;;;5011657;28;88268;-43
2023/06/25 13:48:06;;;;;;;;;;;23.50;73.50;;;;;;5008176;28;87835;-42
2023/06/25 13:50:32;;;;;;;;;;;23.50;73.40;;;;;;5009896;28;88830;-44
2023/06/25 13:52:57;;;;;;;;;;;23.50;73.40;;;;;;5011750;28;88092;-43
2023/06/25 13:55:23;;;;;;;;;;;23.50;73.50;;;;;;5009004;28;86187;-44
2023/06/25 13:57:48;;;;;;;;;;;23.50;73.40;;;;;;5012649;28;87082;-45
2023/06/25 14:03:01;;;;;;;;;;;23.50;73.30;;;;;;5007314;28;88135;-43
2023/06/25 14:05:26;;;;;;;;;;;23.50;73.30;;;;;;5010511;28;88383;-43
2023/06/25 14:07:52;;;;;;;;;;;23.50;73.30;;;;;;5011679;28;87072;-46
2023/06/25 14:10:17;;;;;;;;;;;23.50;73.30;;;;;;5009422;28;87771;-43
2023/06/25 14:12:43;;;;;;;;;;;23.50;73.30;;;;;;5010315;28;88283;-42